sensor_id;sensor_type;location;lat;lon;timestamp;P1;durP1;ratioP1;P2;durP2;ratioP2
70733;SDS011;58320;48.804;9.252;2024-01-15T00:02:06;15.40;;;6.17;;
70733;SDS011;58320;48.804;9.252;2024-01-15T00:04:36;16.13;;;5.43;;
70733;SDS011;58320;48.804;9.252;2024-01-15T00:07:03;15.70;;;6.15;;
70733;SDS011;58320;48.804;9.252;2024-01-15T00:09:29;14.55;;;5.03;;
70733;SDS011;58320;48.804;9.252;2024-01-15T00:11:55;14.70;;;5.77;;
70733;SDS011;58320;48.804;9.252;2024-01-15T00:14:21;13.02;;;5.72;;
70733;SDS011;58320;48.804;9.252;2024-01-15T00:16:47;15.07;;;5.60;;
70733;SDS011;58320;48.804;9.252;2024-01-15T00:19:15;12.83;;;5.40;;
70733;SDS011;58320;48.804;9.252;2024-01-15T00:21:41;18.08;;;6.75;;
70733;SDS011;58320;48.804;9.252;2024-01-15T00:24:07;17.42;;;6.70;;
70733;SDS011;58320;48.804;9.252;2024-01-15T00:26:33;12.87;;;5.63;;
70733;SDS011;58320;48.804;9.252;2024-01-15T00:28:59;13.80;;;5.63;;
70733;SDS011;58320;48.804;9.252;2024-01-15T00:31:25;14.32;;;5.32;;
70733;SDS011;58320;48.804;9.252;2024-01-15T00:33:51;16.43;;;5.13;;
70733;SDS011;58320;48.804;9.252;2024-01-15T00:36:17;15.05;;;5.50;;
70733;SDS011;58320;48.804;9.252;2024-01-15T00:38:46;15.30;;;5.43;;
70733;SDS011;58320;48.804;9.252;2024-01-15T00:41:12;13.07;;;5.28;;
70733;SDS011;58320;48.804;9.252;2024-01-15T00:43:39;16.52;;;6.03;;
70733;SDS011;58320;48.804;9.252;2024-01-15T00:46:04;16.10;;;5.80;;
70733;SDS011;58320;48.804;9.252;2024-01-15T00:48:30;17.58;;;6.07;;
70733;SDS011;58320;48.804;9.252;2024-01-15T00:50:57;16.27;;;5.15;;
70733;SDS011;58320;48.804;9.252;2024-01-15T00:53:22;17.20;;;5.67;;
70733;SDS011;58320;48.804;9.252;2024-01-15T00:55:48;15.93;;;5.78;;
70733;SDS011;58320;48.804;9.252;2024-01-15T00:58:15;13.40;;;5.50;;
70733;SDS011;58320;48.804;9.252;2024-01-15T01:00:41;15.53;;;5.97;;
70733;SDS011;58320;48.804;9.252;2024-01-15T01:03:06;15.30;;;6.03;;
70733;SDS011;58320;48.804;9.252;2024-01-15T01:05:36;14.75;;;4.97;;
70733;SDS011;58320;48.804;9.252;2024-01-15T01:08:02;15.05;;;5.45;;
70733;SDS011;58320;48.804;9.252;2024-01-15T01:10:28;16.47;;;6.03;;
70733;SDS011;58320;48.804;9.252;2024-01-15T01:12:54;13.73;;;5.60;;
70733;SDS011;58320;48.804;9.252;2024-01-15T01:15:20;14.97;;;5.70;;
70733;SDS011;58320;48.804;9.252;2024-01-15T01:17:46;13.90;;;6.05;;
70733;SDS011;58320;48.804;9.252;2024-01-15T01:20:12;18.60;;;5.72;;
70733;SDS011;58320;48.804;9.252;2024-01-15T01:22:37;15.20;;;5.43;;
70733;SDS011;58320;48.804;9.252;2024-01-15T01:25:04;15.35;;;5.13;;
70733;SDS011;58320;48.804;9.252;2024-01-15T01:27:31;15.90;;;6.15;;
70733;SDS011;58320;48.804;9.252;2024-01-15T01:29:56;13.57;;;5.60;;
70733;SDS011;58320;48.804;9.252;2024-01-15T01:32:22;13.10;;;5.05;;
70733;SDS011;58320;48.804;9.252;2024-01-15T01:34:48;16.75;;;6.25;;
70733;SDS011;58320;48.804;9.252;2024-01-15T01:37:14;14.33;;;5.67;;
70733;SDS011;58320;48.804;9.252;2024-01-15T01:39:40;14.95;;;5.35;;
70733;SDS011;58320;48.804;9.252;2024-01-15T01:42:07;13.57;;;5.88;;
70733;SDS011;58320;48.804;9.252;2024-01-15T01:44:32;14.82;;;5.63;;
70733;SDS011;58320;48.804;9.252;2024-01-15T01:46:58;14.13;;;5.60;;
70733;SDS011;58320;48.804;9.252;2024-01-15T01:49:28;18.33;;;5.88;;
70733;SDS011;58320;48.804;9.252;2024-01-15T01:51:58;17.45;;;5.53;;
70733;SDS011;58320;48.804;9.252;2024-01-15T01:54:27;13.77;;;4.77;;
70733;SDS011;58320;48.804;9.252;2024-01-15T01:56:55;16.55;;;5.30;;
70733;SDS011;58320;48.804;9.252;2024-01-15T01:59:22;15.50;;;5.53;;
70733;SDS011;58320;48.804;9.252;2024-01-15T02:01:50;14.70;;;5.40;;
70733;SDS011;58320;48.804;9.252;2024-01-15T02:04:16;14.98;;;5.63;;
70733;SDS011;58320;48.804;9.252;2024-01-15T02:06:42;16.20;;;5.23;;
70733;SDS011;58320;48.804;9.252;2024-01-15T02:09:08;12.15;;;5.13;;
70733;SDS011;58320;48.804;9.252;2024-01-15T02:11:35;14.32;;;5.03;;
70733;SDS011;58320;48.804;9.252;2024-01-15T02:14:01;13.70;;;6.05;;
70733;SDS011;58320;48.804;9.252;2024-01-15T02:16:28;14.10;;;5.23;;
70733;SDS011;58320;48.804;9.252;2024-01-15T02:18:53;18.05;;;6.43;;
70733;SDS011;58320;48.804;9.252;2024-01-15T02:21:19;15.83;;;6.13;;
70733;SDS011;58320;48.804;9.252;2024-01-15T02:23:45;16.00;;;5.75;;
70733;SDS011;58320;48.804;9.252;2024-01-15T02:26:11;17.00;;;5.40;;
70733;SDS011;58320;48.804;9.252;2024-01-15T02:28:37;13.70;;;4.73;;
70733;SDS011;58320;48.804;9.252;2024-01-15T02:31:03;13.77;;;5.10;;
70733;SDS011;58320;48.804;9.252;2024-01-15T02:33:28;14.53;;;5.50;;
70733;SDS011;58320;48.804;9.252;2024-01-15T02:35:54;15.83;;;5.10;;
70733;SDS011;58320;48.804;9.252;2024-01-15T02:38:20;14.85;;;4.82;;
70733;SDS011;58320;48.804;9.252;2024-01-15T02:40:46;13.67;;;5.23;;
70733;SDS011;58320;48.804;9.252;2024-01-15T02:43:12;12.77;;;5.10;;
70733;SDS011;58320;48.804;9.252;2024-01-15T02:45:38;13.13;;;5.22;;
70733;SDS011;58320;48.804;9.252;2024-01-15T02:48:04;13.97;;;5.90;;
70733;SDS011;58320;48.804;9.252;2024-01-15T02:50:30;14.80;;;5.47;;
70733;SDS011;58320;48.804;9.252;2024-01-15T02:52:56;14.38;;;5.22;;
70733;SDS011;58320;48.804;9.252;2024-01-15T02:55:22;11.27;;;4.93;;
70733;SDS011;58320;48.804;9.252;2024-01-15T02:57:48;13.95;;;5.50;;
70733;SDS011;58320;48.804;9.252;2024-01-15T03:00:13;17.77;;;5.13;;
70733;SDS011;58320;48.804;9.252;2024-01-15T03:02:40;14.45;;;4.90;;
70733;SDS011;58320;48.804;9.252;2024-01-15T03:05:08;16.48;;;5.70;;
70733;SDS011;58320;48.804;9.252;2024-01-15T03:07:37;13.05;;;4.57;;
70733;SDS011;58320;48.804;9.252;2024-01-15T03:10:03;12.98;;;5.60;;
70733;SDS011;58320;48.804;9.252;2024-01-15T03:12:30;13.17;;;4.80;;
70733;SDS011;58320;48.804;9.252;2024-01-15T03:14:55;13.95;;;5.78;;
70733;SDS011;58320;48.804;9.252;2024-01-15T03:17:21;13.23;;;5.30;;
70733;SDS011;58320;48.804;9.252;2024-01-15T03:19:47;14.95;;;5.70;;
70733;SDS011;58320;48.804;9.252;2024-01-15T03:22:14;12.57;;;5.15;;
70733;SDS011;58320;48.804;9.252;2024-01-15T03:24:41;15.55;;;5.38;;
70733;SDS011;58320;48.804;9.252;2024-01-15T03:27:06;17.00;;;5.30;;
70733;SDS011;58320;48.804;9.252;2024-01-15T03:29:32;12.93;;;4.90;;
70733;SDS011;58320;48.804;9.252;2024-01-15T03:31:58;14.63;;;5.40;;
70733;SDS011;58320;48.804;9.252;2024-01-15T03:34:24;10.60;;;5.28;;
70733;SDS011;58320;48.804;9.252;2024-01-15T03:36:50;18.17;;;6.30;;
70733;SDS011;58320;48.804;9.252;2024-01-15T03:39:15;12.13;;;4.90;;
70733;SDS011;58320;48.804;9.252;2024-01-15T03:41:41;12.53;;;5.27;;
70733;SDS011;58320;48.804;9.252;2024-01-15T03:44:07;14.15;;;4.90;;
70733;SDS011;58320;48.804;9.252;2024-01-15T03:46:32;17.30;;;5.87;;
70733;SDS011;58320;48.804;9.252;2024-01-15T03:48:58;12.73;;;5.60;;
70733;SDS011;58320;48.804;9.252;2024-01-15T03:51:24;11.67;;;5.03;;
70733;SDS011;58320;48.804;9.252;2024-01-15T03:53:50;16.08;;;5.63;;
70733;SDS011;58320;48.804;9.252;2024-01-15T03:56:16;14.23;;;5.15;;
70733;SDS011;58320;48.804;9.252;2024-01-15T03:58:42;15.10;;;5.78;;
70733;SDS011;58320;48.804;9.252;2024-01-15T04:04:06;13.73;;;5.65;;
70733;SDS011;58320;48.804;9.252;2024-01-15T04:06:32;12.07;;;5.72;;
70733;SDS011;58320;48.804;9.252;2024-01-15T04:08:58;15.33;;;4.80;;
70733;SDS011;58320;48.804;9.252;2024-01-15T04:11:24;12.40;;;4.95;;
70733;SDS011;58320;48.804;9.252;2024-01-15T04:13:49;12.17;;;5.07;;
70733;SDS011;58320;48.804;9.252;2024-01-15T04:16:15;16.63;;;6.30;;
70733;SDS011;58320;48.804;9.252;2024-01-15T04:18:41;11.37;;;4.93;;
70733;SDS011;58320;48.804;9.252;2024-01-15T04:21:06;14.65;;;5.13;;
70733;SDS011;58320;48.804;9.252;2024-01-15T04:23:32;13.60;;;5.73;;
70733;SDS011;58320;48.804;9.252;2024-01-15T04:25:58;11.70;;;4.85;;
70733;SDS011;58320;48.804;9.252;2024-01-15T04:28:24;11.98;;;4.78;;
70733;SDS011;58320;48.804;9.252;2024-01-15T04:30:50;12.63;;;4.93;;
70733;SDS011;58320;48.804;9.252;2024-01-15T04:33:15;14.60;;;5.60;;
70733;SDS011;58320;48.804;9.252;2024-01-15T04:35:41;17.30;;;6.10;;
70733;SDS011;58320;48.804;9.252;2024-01-15T04:38:07;14.93;;;5.30;;
70733;SDS011;58320;48.804;9.252;2024-01-15T04:40:32;11.00;;;4.93;;
70733;SDS011;58320;48.804;9.252;2024-01-15T04:42:58;13.82;;;4.30;;
70733;SDS011;58320;48.804;9.252;2024-01-15T04:45:24;11.90;;;4.40;;
70733;SDS011;58320;48.804;9.252;2024-01-15T04:47:53;11.80;;;4.88;;
70733;SDS011;58320;48.804;9.252;2024-01-15T04:50:21;13.60;;;5.13;;
70733;SDS011;58320;48.804;9.252;2024-01-15T04:52:47;13.52;;;5.07;;
70733;SDS011;58320;48.804;9.252;2024-01-15T04:55:13;13.33;;;5.50;;
70733;SDS011;58320;48.804;9.252;2024-01-15T04:57:38;12.10;;;4.70;;
70733;SDS011;58320;48.804;9.252;2024-01-15T05:00:04;12.73;;;5.13;;
70733;SDS011;58320;48.804;9.252;2024-01-15T05:02:31;10.68;;;4.70;;
70733;SDS011;58320;48.804;9.252;2024-01-15T05:04:56;12.50;;;5.73;;
70733;SDS011;58320;48.804;9.252;2024-01-15T05:07:22;12.52;;;4.65;;
70733;SDS011;58320;48.804;9.252;2024-01-15T05:09:48;14.15;;;4.47;;
70733;SDS011;58320;48.804;9.252;2024-01-15T05:12:13;10.60;;;4.73;;
70733;SDS011;58320;48.804;9.252;2024-01-15T05:14:39;12.83;;;4.33;;
70733;SDS011;58320;48.804;9.252;2024-01-15T05:17:05;10.50;;;4.83;;
70733;SDS011;58320;48.804;9.252;2024-01-15T05:19:30;13.77;;;5.20;;
70733;SDS011;58320;48.804;9.252;2024-01-15T05:21:56;9.87;;;4.67;;
70733;SDS011;58320;48.804;9.252;2024-01-15T05:24:22;11.98;;;5.10;;
70733;SDS011;58320;48.804;9.252;2024-01-15T05:26:47;12.47;;;5.33;;
70733;SDS011;58320;48.804;9.252;2024-01-15T05:29:13;13.82;;;5.13;;
70733;SDS011;58320;48.804;9.252;2024-01-15T05:31:39;10.63;;;4.50;;
70733;SDS011;58320;48.804;9.252;2024-01-15T05:34:04;13.40;;;5.13;;
70733;SDS011;58320;48.804;9.252;2024-01-15T05:36:30;12.47;;;5.47;;
70733;SDS011;58320;48.804;9.252;2024-01-15T05:38:56;16.48;;;5.75;;
70733;SDS011;58320;48.804;9.252;2024-01-15T05:41:21;16.43;;;6.20;;
70733;SDS011;58320;48.804;9.252;2024-01-15T05:43:47;13.05;;;5.45;;
70733;SDS011;58320;48.804;9.252;2024-01-15T05:46:13;15.47;;;5.60;;
70733;SDS011;58320;48.804;9.252;2024-01-15T05:48:40;11.45;;;5.00;;
70733;SDS011;58320;48.804;9.252;2024-01-15T05:51:06;16.53;;;5.20;;
70733;SDS011;58320;48.804;9.252;2024-01-15T05:53:31;10.50;;;5.17;;
70733;SDS011;58320;48.804;9.252;2024-01-15T05:55:57;14.40;;;5.10;;
70733;SDS011;58320;48.804;9.252;2024-01-15T05:58:23;11.83;;;4.73;;
70733;SDS011;58320;48.804;9.252;2024-01-15T06:00:49;10.90;;;4.88;;
70733;SDS011;58320;48.804;9.252;2024-01-15T06:03:15;12.13;;;5.30;;
70733;SDS011;58320;48.804;9.252;2024-01-15T06:05:40;15.00;;;6.00;;
70733;SDS011;58320;48.804;9.252;2024-01-15T06:08:06;13.63;;;5.57;;
70733;SDS011;58320;48.804;9.252;2024-01-15T06:10:32;11.50;;;5.60;;
70733;SDS011;58320;48.804;9.252;2024-01-15T06:12:58;14.10;;;5.45;;
70733;SDS011;58320;48.804;9.252;2024-01-15T06:15:24;13.93;;;5.25;;
70733;SDS011;58320;48.804;9.252;2024-01-15T06:17:49;13.20;;;5.57;;
70733;SDS011;58320;48.804;9.252;2024-01-15T06:20:15;13.17;;;5.53;;
70733;SDS011;58320;48.804;9.252;2024-01-15T06:22:41;13.57;;;5.50;;
70733;SDS011;58320;48.804;9.252;2024-01-15T06:25:07;12.65;;;5.68;;
70733;SDS011;58320;48.804;9.252;2024-01-15T06:27:33;12.48;;;5.50;;
70733;SDS011;58320;48.804;9.252;2024-01-15T06:29:59;12.33;;;5.67;;
70733;SDS011;58320;48.804;9.252;2024-01-15T06:32:25;13.65;;;5.75;;
70733;SDS011;58320;48.804;9.252;2024-01-15T06:34:50;14.67;;;4.87;;
70733;SDS011;58320;48.804;9.252;2024-01-15T06:37:16;11.85;;;5.43;;
70733;SDS011;58320;48.804;9.252;2024-01-15T06:39:44;10.57;;;5.78;;
70733;SDS011;58320;48.804;9.252;2024-01-15T06:42:09;11.70;;;5.37;;
70733;SDS011;58320;48.804;9.252;2024-01-15T06:44:35;10.32;;;4.85;;
70733;SDS011;58320;48.804;9.252;2024-01-15T06:47:01;12.50;;;5.20;;
70733;SDS011;58320;48.804;9.252;2024-01-15T06:49:30;11.50;;;4.63;;
70733;SDS011;58320;48.804;9.252;2024-01-15T06:51:56;14.80;;;5.50;;
70733;SDS011;58320;48.804;9.252;2024-01-15T06:54:22;12.47;;;4.77;;
70733;SDS011;58320;48.804;9.252;2024-01-15T06:56:48;14.38;;;5.55;;
70733;SDS011;58320;48.804;9.252;2024-01-15T06:59:15;14.73;;;5.00;;
70733;SDS011;58320;48.804;9.252;2024-01-15T07:01:40;13.33;;;5.13;;
70733;SDS011;58320;48.804;9.252;2024-01-15T07:04:06;12.98;;;5.55;;
70733;SDS011;58320;48.804;9.252;2024-01-15T07:06:33;11.23;;;5.10;;
70733;SDS011;58320;48.804;9.252;2024-01-15T07:08:58;13.00;;;5.00;;
70733;SDS011;58320;48.804;9.252;2024-01-15T07:11:24;13.60;;;4.82;;
70733;SDS011;58320;48.804;9.252;2024-01-15T07:13:50;12.07;;;5.00;;
70733;SDS011;58320;48.804;9.252;2024-01-15T07:16:16;14.77;;;5.28;;
70733;SDS011;58320;48.804;9.252;2024-01-15T07:18:42;12.03;;;5.13;;
70733;SDS011;58320;48.804;9.252;2024-01-15T07:21:07;11.82;;;4.97;;
70733;SDS011;58320;48.804;9.252;2024-01-15T07:23:33;10.03;;;4.77;;
70733;SDS011;58320;48.804;9.252;2024-01-15T07:25:59;11.05;;;5.15;;
70733;SDS011;58320;48.804;9.252;2024-01-15T07:28:24;10.88;;;4.90;;
70733;SDS011;58320;48.804;9.252;2024-01-15T07:30:50;10.27;;;4.80;;
70733;SDS011;58320;48.804;9.252;2024-01-15T07:33:17;14.30;;;5.05;;
70733;SDS011;58320;48.804;9.252;2024-01-15T07:35:42;10.18;;;5.22;;
70733;SDS011;58320;48.804;9.252;2024-01-15T07:38:08;9.30;;;4.87;;
70733;SDS011;58320;48.804;9.252;2024-01-15T07:40:35;13.65;;;5.25;;
70733;SDS011;58320;48.804;9.252;2024-01-15T07:43:02;13.43;;;4.82;;
70733;SDS011;58320;48.804;9.252;2024-01-15T07:45:27;11.30;;;4.75;;
70733;SDS011;58320;48.804;9.252;2024-01-15T07:47:53;11.67;;;5.13;;
70733;SDS011;58320;48.804;9.252;2024-01-15T07:50:19;10.77;;;5.38;;
70733;SDS011;58320;48.804;9.252;2024-01-15T07:52:44;10.73;;;5.20;;
70733;SDS011;58320;48.804;9.252;2024-01-15T07:55:10;10.88;;;5.22;;
70733;SDS011;58320;48.804;9.252;2024-01-15T07:57:36;11.73;;;4.60;;
70733;SDS011;58320;48.804;9.252;2024-01-15T08:00:04;13.23;;;5.32;;
70733;SDS011;58320;48.804;9.252;2024-01-15T08:02:31;10.65;;;4.60;;
70733;SDS011;58320;48.804;9.252;2024-01-15T08:04:57;14.93;;;5.17;;
70733;SDS011;58320;48.804;9.252;2024-01-15T08:07:23;11.93;;;5.13;;
70733;SDS011;58320;48.804;9.252;2024-01-15T08:09:50;11.77;;;4.95;;
70733;SDS011;58320;48.804;9.252;2024-01-15T08:12:17;11.32;;;5.18;;
70733;SDS011;58320;48.804;9.252;2024-01-15T08:14:43;10.63;;;4.43;;
70733;SDS011;58320;48.804;9.252;2024-01-15T08:17:09;8.83;;;3.93;;
70733;SDS011;58320;48.804;9.252;2024-01-15T08:19:34;10.15;;;4.57;;
70733;SDS011;58320;48.804;9.252;2024-01-15T08:22:00;10.60;;;4.57;;
70733;SDS011;58320;48.804;9.252;2024-01-15T08:24:26;10.50;;;4.50;;
70733;SDS011;58320;48.804;9.252;2024-01-15T08:26:52;12.90;;;4.63;;
70733;SDS011;58320;48.804;9.252;2024-01-15T08:29:17;12.02;;;4.80;;
70733;SDS011;58320;48.804;9.252;2024-01-15T08:31:45;10.90;;;4.68;;
70733;SDS011;58320;48.804;9.252;2024-01-15T08:34:11;12.70;;;4.50;;
70733;SDS011;58320;48.804;9.252;2024-01-15T08:36:37;14.25;;;4.30;;
70733;SDS011;58320;48.804;9.252;2024-01-15T08:39:03;11.75;;;4.07;;
70733;SDS011;58320;48.804;9.252;2024-01-15T08:41:30;9.73;;;4.30;;
70733;SDS011;58320;48.804;9.252;2024-01-15T08:43:57;11.90;;;4.47;;
70733;SDS011;58320;48.804;9.252;2024-01-15T08:46:23;11.68;;;4.40;;
70733;SDS011;58320;48.804;9.252;2024-01-15T08:48:49;9.65;;;4.70;;
70733;SDS011;58320;48.804;9.252;2024-01-15T08:51:16;9.07;;;4.00;;
70733;SDS011;58320;48.804;9.252;2024-01-15T08:53:43;10.05;;;4.60;;
70733;SDS011;58320;48.804;9.252;2024-01-15T08:56:09;8.43;;;4.45;;
70733;SDS011;58320;48.804;9.252;2024-01-15T08:58:35;10.23;;;4.50;;
70733;SDS011;58320;48.804;9.252;2024-01-15T09:01:00;12.93;;;4.90;;
70733;SDS011;58320;48.804;9.252;2024-01-15T09:03:26;11.38;;;4.03;;
70733;SDS011;58320;48.804;9.252;2024-01-15T09:05:52;10.90;;;4.30;;
70733;SDS011;58320;48.804;9.252;2024-01-15T09:08:19;9.88;;;4.38;;
70733;SDS011;58320;48.804;9.252;2024-01-15T09:10:45;9.18;;;4.32;;
70733;SDS011;58320;48.804;9.252;2024-01-15T09:13:11;7.70;;;3.63;;
70733;SDS011;58320;48.804;9.252;2024-01-15T09:15:36;10.35;;;3.38;;
70733;SDS011;58320;48.804;9.252;2024-01-15T09:18:02;11.43;;;4.03;;
70733;SDS011;58320;48.804;9.252;2024-01-15T09:20:28;8.35;;;3.72;;
70733;SDS011;58320;48.804;9.252;2024-01-15T09:22:54;8.63;;;3.50;;
70733;SDS011;58320;48.804;9.252;2024-01-15T09:25:19;9.50;;;3.57;;
70733;SDS011;58320;48.804;9.252;2024-01-15T09:27:45;7.45;;;3.95;;
70733;SDS011;58320;48.804;9.252;2024-01-15T09:30:11;10.33;;;4.23;;
70733;SDS011;58320;48.804;9.252;2024-01-15T09:32:37;8.85;;;3.78;;
70733;SDS011;58320;48.804;9.252;2024-01-15T09:35:03;8.20;;;3.33;;
70733;SDS011;58320;48.804;9.252;2024-01-15T09:37:29;8.50;;;3.80;;
70733;SDS011;58320;48.804;9.252;2024-01-15T09:39:54;9.13;;;3.80;;
70733;SDS011;58320;48.804;9.252;2024-01-15T09:42:20;8.17;;;3.53;;
70733;SDS011;58320;48.804;9.252;2024-01-15T09:44:49;8.45;;;3.30;;
70733;SDS011;58320;48.804;9.252;2024-01-15T09:47:14;11.38;;;3.42;;
70733;SDS011;58320;48.804;9.252;2024-01-15T09:49:41;7.38;;;3.40;;
70733;SDS011;58320;48.804;9.252;2024-01-15T09:52:07;8.20;;;3.03;;
70733;SDS011;58320;48.804;9.252;2024-01-15T09:54:33;7.47;;;3.17;;
70733;SDS011;58320;48.804;9.252;2024-01-15T09:57:00;7.97;;;3.78;;
70733;SDS011;58320;48.804;9.252;2024-01-15T09:59:26;8.63;;;3.23;;
70733;SDS011;58320;48.804;9.252;2024-01-15T10:01:53;10.80;;;3.33;;
70733;SDS011;58320;48.804;9.252;2024-01-15T10:04:20;7.15;;;3.28;;
70733;SDS011;58320;48.804;9.252;2024-01-15T10:06:46;6.70;;;3.25;;
70733;SDS011;58320;48.804;9.252;2024-01-15T10:09:16;7.75;;;3.20;;
70733;SDS011;58320;48.804;9.252;2024-01-15T10:11:43;7.60;;;3.00;;
70733;SDS011;58320;48.804;9.252;2024-01-15T10:14:10;6.82;;;3.20;;
70733;SDS011;58320;48.804;9.252;2024-01-15T10:16:40;8.55;;;3.50;;
70733;SDS011;58320;48.804;9.252;2024-01-15T10:19:09;8.07;;;3.00;;
70733;SDS011;58320;48.804;9.252;2024-01-15T10:21:35;12.32;;;3.42;;
70733;SDS011;58320;48.804;9.252;2024-01-15T10:24:02;9.83;;;3.27;;
70733;SDS011;58320;48.804;9.252;2024-01-15T10:26:29;7.47;;;3.13;;
70733;SDS011;58320;48.804;9.252;2024-01-15T10:28:56;6.13;;;2.97;;
70733;SDS011;58320;48.804;9.252;2024-01-15T10:31:23;7.97;;;3.30;;
70733;SDS011;58320;48.804;9.252;2024-01-15T10:33:49;7.87;;;3.27;;
70733;SDS011;58320;48.804;9.252;2024-01-15T10:36:15;6.22;;;3.00;;
70733;SDS011;58320;48.804;9.252;2024-01-15T10:38:46;8.48;;;3.38;;
70733;SDS011;58320;48.804;9.252;2024-01-15T10:41:12;6.83;;;3.03;;
70733;SDS011;58320;48.804;9.252;2024-01-15T10:43:38;9.63;;;3.30;;
70733;SDS011;58320;48.804;9.252;2024-01-15T10:46:06;7.65;;;3.08;;
70733;SDS011;58320;48.804;9.252;2024-01-15T10:48:32;7.45;;;3.28;;
70733;SDS011;58320;48.804;9.252;2024-01-15T10:51:00;7.47;;;2.90;;
70733;SDS011;58320;48.804;9.252;2024-01-15T10:53:35;7.97;;;2.87;;
70733;SDS011;58320;48.804;9.252;2024-01-15T10:56:05;7.22;;;3.10;;
70733;SDS011;58320;48.804;9.252;2024-01-15T10:58:32;7.00;;;2.78;;
70733;SDS011;58320;48.804;9.252;2024-01-15T11:01:00;7.00;;;3.33;;
70733;SDS011;58320;48.804;9.252;2024-01-15T11:03:27;7.35;;;3.22;;
70733;SDS011;58320;48.804;9.252;2024-01-15T11:05:53;5.40;;;2.87;;
70733;SDS011;58320;48.804;9.252;2024-01-15T11:08:19;6.45;;;2.90;;
70733;SDS011;58320;48.804;9.252;2024-01-15T11:10:47;6.70;;;3.38;;
70733;SDS011;58320;48.804;9.252;2024-01-15T11:13:39;7.03;;;3.38;;
70733;SDS011;58320;48.804;9.252;2024-01-15T11:16:07;7.47;;;3.05;;
70733;SDS011;58320;48.804;9.252;2024-01-15T11:18:36;6.90;;;3.33;;
70733;SDS011;58320;48.804;9.252;2024-01-15T11:21:21;9.35;;;3.30;;
70733;SDS011;58320;48.804;9.252;2024-01-15T11:29:10;7.68;;;3.70;;
70733;SDS011;58320;48.804;9.252;2024-01-15T11:34:53;7.32;;;3.72;;
70733;SDS011;58320;48.804;9.252;2024-01-15T11:37:24;6.60;;;3.25;;
70733;SDS011;58320;48.804;9.252;2024-01-15T11:39:52;7.97;;;3.33;;
70733;SDS011;58320;48.804;9.252;2024-01-15T11:42:20;8.25;;;3.45;;
70733;SDS011;58320;48.804;9.252;2024-01-15T11:44:47;10.13;;;3.53;;
70733;SDS011;58320;48.804;9.252;2024-01-15T11:47:14;8.55;;;3.78;;
70733;SDS011;58320;48.804;9.252;2024-01-15T11:52:33;8.82;;;3.53;;
70733;SDS011;58320;48.804;9.252;2024-01-15T11:55:02;10.05;;;4.30;;
70733;SDS011;58320;48.804;9.252;2024-01-15T11:58:01;8.23;;;3.80;;
70733;SDS011;58320;48.804;9.252;2024-01-15T12:00:32;8.32;;;4.28;;
70733;SDS011;58320;48.804;9.252;2024-01-15T12:02:58;8.40;;;4.35;;
70733;SDS011;58320;48.804;9.252;2024-01-15T12:05:24;11.37;;;4.43;;
70733;SDS011;58320;48.804;9.252;2024-01-15T12:07:50;8.18;;;3.58;;
70733;SDS011;58320;48.804;9.252;2024-01-15T12:10:19;8.75;;;3.65;;
70733;SDS011;58320;48.804;9.252;2024-01-15T12:15:26;8.32;;;4.13;;
70733;SDS011;58320;48.804;9.252;2024-01-15T12:17:54;10.05;;;4.10;;
70733;SDS011;58320;48.804;9.252;2024-01-15T12:20:25;9.55;;;4.03;;
70733;SDS011;58320;48.804;9.252;2024-01-15T12:22:52;7.57;;;3.75;;
70733;SDS011;58320;48.804;9.252;2024-01-15T12:25:20;8.07;;;3.83;;
70733;SDS011;58320;48.804;9.252;2024-01-15T12:27:51;8.18;;;3.95;;
70733;SDS011;58320;48.804;9.252;2024-01-15T12:30:18;10.40;;;4.18;;
70733;SDS011;58320;48.804;9.252;2024-01-15T12:32:44;10.52;;;4.32;;
70733;SDS011;58320;48.804;9.252;2024-01-15T12:35:12;8.83;;;4.00;;
70733;SDS011;58320;48.804;9.252;2024-01-15T12:37:40;8.23;;;4.07;;
70733;SDS011;58320;48.804;9.252;2024-01-15T12:40:06;9.02;;;3.67;;
70733;SDS011;58320;48.804;9.252;2024-01-15T12:42:34;9.45;;;4.35;;
70733;SDS011;58320;48.804;9.252;2024-01-15T12:45:07;11.13;;;4.50;;
70733;SDS011;58320;48.804;9.252;2024-01-15T12:47:35;7.73;;;3.53;;
70733;SDS011;58320;48.804;9.252;2024-01-15T12:50:02;12.02;;;4.95;;
70733;SDS011;58320;48.804;9.252;2024-01-15T12:52:32;10.70;;;4.15;;
70733;SDS011;58320;48.804;9.252;2024-01-15T12:54:59;11.10;;;4.25;;
70733;SDS011;58320;48.804;9.252;2024-01-15T12:57:25;10.97;;;4.53;;
70733;SDS011;58320;48.804;9.252;2024-01-15T12:59:51;8.32;;;3.90;;
70733;SDS011;58320;48.804;9.252;2024-01-15T13:02:19;7.13;;;3.67;;
70733;SDS011;58320;48.804;9.252;2024-01-15T13:04:45;11.57;;;4.43;;
70733;SDS011;58320;48.804;9.252;2024-01-15T13:07:11;10.50;;;5.18;;
70733;SDS011;58320;48.804;9.252;2024-01-15T13:09:37;8.17;;;4.27;;
70733;SDS011;58320;48.804;9.252;2024-01-15T13:12:02;8.77;;;4.30;;
70733;SDS011;58320;48.804;9.252;2024-01-15T13:14:28;9.25;;;4.13;;
70733;SDS011;58320;48.804;9.252;2024-01-15T13:16:54;9.27;;;3.60;;
70733;SDS011;58320;48.804;9.252;2024-01-15T13:19:20;10.13;;;4.85;;
70733;SDS011;58320;48.804;9.252;2024-01-15T13:21:47;8.65;;;3.88;;
70733;SDS011;58320;48.804;9.252;2024-01-15T13:24:14;8.65;;;3.92;;
70733;SDS011;58320;48.804;9.252;2024-01-15T13:26:40;9.00;;;3.33;;
70733;SDS011;58320;48.804;9.252;2024-01-15T13:29:06;10.48;;;3.67;;
70733;SDS011;58320;48.804;9.252;2024-01-15T13:31:32;7.20;;;3.50;;
70733;SDS011;58320;48.804;9.252;2024-01-15T13:33:58;8.63;;;4.00;;
70733;SDS011;58320;48.804;9.252;2024-01-15T13:36:25;7.78;;;3.17;;
70733;SDS011;58320;48.804;9.252;2024-01-15T13:38:52;7.43;;;3.33;;
70733;SDS011;58320;48.804;9.252;2024-01-15T13:41:19;7.53;;;3.75;;
70733;SDS011;58320;48.804;9.252;2024-01-15T13:44:04;8.47;;;3.47;;
70733;SDS011;58320;48.804;9.252;2024-01-15T13:46:30;8.45;;;3.30;;
70733;SDS011;58320;48.804;9.252;2024-01-15T13:48:55;7.80;;;3.17;;
70733;SDS011;58320;48.804;9.252;2024-01-15T13:51:22;7.63;;;3.60;;
70733;SDS011;58320;48.804;9.252;2024-01-15T13:53:48;8.23;;;4.00;;
70733;SDS011;58320;48.804;9.252;2024-01-15T13:56:15;8.70;;;2.92;;
70733;SDS011;58320;48.804;9.252;2024-01-15T13:58:41;8.40;;;3.60;;
70733;SDS011;58320;48.804;9.252;2024-01-15T14:01:07;7.13;;;3.63;;
70733;SDS011;58320;48.804;9.252;2024-01-15T14:03:33;8.98;;;4.07;;
70733;SDS011;58320;48.804;9.252;2024-01-15T14:06:00;8.70;;;3.30;;
70733;SDS011;58320;48.804;9.252;2024-01-15T14:08:28;7.63;;;3.47;;
70733;SDS011;58320;48.804;9.252;2024-01-15T14:10:53;8.13;;;3.42;;
70733;SDS011;58320;48.804;9.252;2024-01-15T14:13:20;8.30;;;3.55;;
70733;SDS011;58320;48.804;9.252;2024-01-15T14:15:47;6.50;;;3.43;;
70733;SDS011;58320;48.804;9.252;2024-01-15T14:18:14;7.15;;;3.22;;
70733;SDS011;58320;48.804;9.252;2024-01-15T14:20:41;7.85;;;3.88;;
70733;SDS011;58320;48.804;9.252;2024-01-15T14:23:08;6.97;;;3.08;;
70733;SDS011;58320;48.804;9.252;2024-01-15T14:25:34;8.23;;;3.10;;
70733;SDS011;58320;48.804;9.252;2024-01-15T14:28:00;9.05;;;3.50;;
70733;SDS011;58320;48.804;9.252;2024-01-15T14:30:26;6.03;;;3.08;;
70733;SDS011;58320;48.804;9.252;2024-01-15T14:32:52;6.97;;;3.27;;
70733;SDS011;58320;48.804;9.252;2024-01-15T14:35:18;6.30;;;3.10;;
70733;SDS011;58320;48.804;9.252;2024-01-15T14:37:44;6.72;;;3.40;;
70733;SDS011;58320;48.804;9.252;2024-01-15T14:40:10;7.60;;;3.33;;
70733;SDS011;58320;48.804;9.252;2024-01-15T14:42:37;7.90;;;3.28;;
70733;SDS011;58320;48.804;9.252;2024-01-15T14:45:03;8.65;;;3.65;;
70733;SDS011;58320;48.804;9.252;2024-01-15T14:47:36;6.40;;;3.72;;
70733;SDS011;58320;48.804;9.252;2024-01-15T14:50:06;8.13;;;3.97;;
70733;SDS011;58320;48.804;9.252;2024-01-15T14:52:33;8.45;;;4.20;;